Time,TemperatureF,DewpointF,PressureIn,WindDirection,WindDirectionDegrees,WindSpeedMPH,WindSpeedGustMPH,Humidity,HourlyPrecipIn,Conditions,Clouds,dailyrainin,SoftwareType,DateUTC
2013-06-26 00:22:00,72.0,71.0,30.08,SW,221,0.0,0.0,97,0.00,,,0.08,,2013-06-26 04:22:00,
2013-06-26 00:43:00,72.0,71.0,30.08,WSW,253,0.0,1.0,98,0.00,,,0.08,,2013-06-26 04:43:00,
2013-06-26 00:53:00,72.0,71.0,30.07,WSW,243,0.0,1.0,98,0.00,,,0.08,,2013-06-26 04:53:00,
2013-06-26 01:34:00,72.0,71.0,30.07,West,259,0.0,1.0,97,0.00,,,0.08,,2013-06-26 05:34:00,
2013-06-26 01:43:00,72.0,71.0,30.07,WNW,293,1.0,2.0,97,0.00,,,0.08,,2013-06-26 05:43:00,
2013-06-26 02:34:00,72.0,71.0,30.05,WNW,288,1.0,2.0,96,0.00,,,0.08,,2013-06-26 06:34:00,
2013-06-26 02:43:00,72.0,71.0,30.05,WSW,255,1.0,2.0,96,0.00,,,0.08,,2013-06-26 06:43:00,
2013-06-26 02:53:00,72.0,71.0,30.05,West,262,0.0,3.0,96,0.00,,,0.08,,2013-06-26 06:53:00,
2013-06-26 03:01:00,72.0,71.0,30.05,West,262,0.0,0.0,96,0.00,,,0.08,,2013-06-26 07:01:00,
2013-06-26 03:11:00,72.0,71.0,30.05,West,262,0.0,0.0,96,0.00,,,0.08,,2013-06-26 07:11:00,
2013-06-26 03:43:00,72.0,71.0,30.04,West,278,0.0,1.0,97,0.00,,,0.08,,2013-06-26 07:43:00,
2013-06-26 03:53:00,71.0,70.0,30.04,West,277,0.0,0.0,96,0.00,,,0.08,,2013-06-26 07:53:00,
2013-06-26 04:01:00,71.0,70.0,30.04,West,277,0.0,0.0,96,0.00,,,0.08,,2013-06-26 08:01:00,
2013-06-26 04:33:00,70.0,69.0,30.04,West,278,0.0,0.0,97,0.00,,,0.08,,2013-06-26 08:33:00,
2013-06-26 04:42:00,70.0,69.0,30.04,West,278,0.0,0.0,97,0.00,,,0.08,,2013-06-26 08:42:00,
2013-06-26 05:01:00,70.0,69.0,30.04,SSW,210,0.0,1.0,97,0.00,,,0.08,,2013-06-26 09:01:00,
2013-06-26 05:43:00,70.0,69.0,30.05,SSW,213,0.0,0.0,98,0.01,,,0.09,,2013-06-26 09:43:00,
2013-06-26 07:44:00,71.0,71.0,30.07,SW,214,0.0,0.0,99,0.00,,,0.09,,2013-06-26 11:44:00,
2013-06-26 07:52:00,72.0,72.0,30.08,SSW,213,0.0,0.0,99,0.00,,,0.09,,2013-06-26 11:52:00,
2013-06-26 08:42:00,76.0,74.0,30.09,WSW,248,2.0,4.0,93,0.00,,,0.08,,2013-06-26 12:42:00,
2013-06-26 08:52:00,76.0,74.0,30.10,SW,236,2.0,4.0,94,0.00,,,0.08,,2013-06-26 12:52:00,
2013-06-26 09:34:00,77.0,74.0,30.10,SW,218,1.0,5.0,92,0.00,,,0.08,,2013-06-26 13:34:00,
2013-06-26 10:02:00,78.0,75.0,30.09,SW,236,4.0,7.0,90,0.00,,,0.08,,2013-06-26 14:02:00,
2013-06-26 10:34:00,81.0,76.0,30.08,SW,222,3.0,5.0,85,0.00,,,0.08,,2013-06-26 14:34:00,
2013-06-26 10:42:00,82.0,76.0,30.08,WNW,291,3.0,7.0,81,0.00,,,0.08,,2013-06-26 14:42:00,
2013-06-26 10:53:00,82.0,75.0,30.08,WNW,297,3.0,6.0,80,0.00,,,0.08,,2013-06-26 14:53:00,
2013-06-26 11:02:00,83.0,75.0,30.08,SW,222,4.0,9.0,76,0.00,,,0.08,,2013-06-26 15:02:00,
2013-06-26 11:11:00,84.0,74.0,30.08,West,267,4.0,6.0,73,0.00,,,0.08,,2013-06-26 15:11:00,
2013-06-26 11:34:00,85.0,75.0,30.07,WSW,246,2.0,5.0,72,0.00,,,0.08,,2013-06-26 15:34:00,
2013-06-26 11:44:00,85.0,75.0,30.07,SW,233,2.0,8.0,73,0.00,,,0.08,,2013-06-26 15:44:00,
2013-06-26 12:34:00,86.0,75.0,30.07,SW,235,1.0,4.0,71,0.00,,,0.08,,2013-06-26 16:34:00,
2013-06-26 13:43:00,89.0,75.0,30.04,SW,233,4.0,9.0,64,0.00,,,0.08,,2013-06-26 17:43:00,
2013-06-26 13:52:00,89.0,76.0,30.04,West,259,1.0,9.0,65,0.00,,,0.08,,2013-06-26 17:52:00,
2013-06-26 14:43:00,86.0,76.0,30.03,WSW,244,3.0,11.0,72,0.00,,,0.08,,2013-06-26 18:43:00,
2013-06-26 16:01:00,90.0,75.0,29.98,WSW,240,4.0,8.0,61,0.00,,,0.08,,2013-06-26 20:01:00,
2013-06-26 16:33:00,91.0,74.0,29.98,SSW,211,3.0,7.0,57,0.00,,,0.08,,2013-06-26 20:33:00,
2013-06-26 16:43:00,91.0,74.0,29.98,SSW,211,3.0,7.0,57,0.00,,,0.08,,2013-06-26 20:43:00,
2013-06-26 16:52:00,91.0,74.0,29.98,SSW,211,3.0,7.0,57,0.00,,,0.08,,2013-06-26 20:52:00,
2013-06-26 17:02:00,91.0,74.0,29.98,SSW,211,3.0,7.0,57,0.00,,,0.08,,2013-06-26 21:02:00,
2013-06-26 17:12:00,91.0,74.0,29.98,SSW,211,3.0,7.0,57,0.00,,,0.08,,2013-06-26 21:12:00,
2013-06-26 22:01:00,79.0,75.0,30.00,West,266,5.0,9.0,87,0.00,,,0.03,,2013-06-27 02:01:00,
2013-06-26 22:11:00,79.0,75.0,30.00,SW,235,4.0,9.0,88,0.00,,,0.03,,2013-06-27 02:11:00,
2013-06-26 22:42:00,79.0,75.0,29.99,SW,218,4.0,8.0,88,0.00,,,0.03,,2013-06-27 02:42:00,
2013-06-26 22:52:00,79.0,74.0,30.00,WSW,252,4.0,8.0,85,0.00,,,0.02,,2013-06-27 02:52:00,